Time,TemperatureF,DewpointF,PressureIn,WindDirection,WindDirectionDegrees,WindSpeedMPH,WindSpeedGustMPH,Humidity,HourlyPrecipIn,Conditions,Clouds,dailyrainin,SoftwareType,DateUTC
2013-02-08 00:00:00,30.1,22.5,30.17,NNW,348,0.0,3.0,73,0.00,,,0.00,WeatherCatV1.13B119,2013-02-08 06:00:00,
2013-02-08 00:05:00,30.1,22.2,30.17,NNW,348,3.0,3.0,72,0.00,,,0.00,WeatherCatV1.13B119,2013-02-08 06:05:00,
2013-02-08 00:10:00,30.1,22.5,30.17,NNW,348,0.0,0.0,73,0.00,,,0.00,WeatherCatV1.13B119,2013-02-08 06:10:00,
2013-02-08 00:15:00,30.1,22.5,30.18,NNW,348,0.0,2.0,73,0.00,,,0.00,WeatherCatV1.13B119,2013-02-08 06:15:00,
2013-02-08 00:20:00,30.1,22.2,30.18,NNW,338,6.0,7.0,72,0.00,,,0.00,WeatherCatV1.13B119,2013-02-08 06:20:00,
2013-02-08 00:25:00,30.3,22.0,30.18,NNW,339,0.0,2.0,71,0.00,,,0.00,WeatherCatV1.13B119,2013-02-08 06:25:00,
2013-02-08 00:30:00,30.3,22.4,30.18,NNW,333,5.0,5.0,72,0.00,,,0.00,WeatherCatV1.13B119,2013-02-08 06:30:00,
2013-02-08 00:35:00,30.1,22.2,30.18,North,355,8.0,11.0,72,0.00,,,0.00,WeatherCatV1.13B119,2013-02-08 06:35:00,
2013-02-08 00:40:00,30.1,22.2,30.18,NNW,329,2.0,7.0,72,0.00,,,0.00,WeatherCatV1.13B119,2013-02-08 06:40:00,
2013-02-08 00:45:00,30.0,22.1,30.19,North,5,5.0,9.0,72,0.00,,,0.00,WeatherCatV1.13B119,2013-02-08 06:45:00,
2013-02-08 00:50:00,30.0,22.1,30.19,North,0,2.0,4.0,72,0.00,,,0.00,WeatherCatV1.13B119,2013-02-08 06:50:00,
2013-02-08 00:55:00,29.8,22.2,30.19,North,349,2.0,6.0,73,0.00,,,0.00,WeatherCatV1.13B119,2013-02-08 06:55:00,
2013-02-08 01:00:00,29.8,22.2,30.19,North,355,2.0,3.0,73,0.00,,,0.00,WeatherCatV1.13B119,2013-02-08 07:00:00,
2013-02-08 01:05:00,29.7,22.4,30.19,North,355,1.0,4.0,74,0.00,,,0.00,WeatherCatV1.13B119,2013-02-08 07:05:00,
2013-02-08 01:10:00,29.7,22.4,30.19,North,355,2.0,5.0,74,0.00,,,0.00,WeatherCatV1.13B119,2013-02-08 07:10:00,
2013-02-08 01:15:00,29.8,22.5,30.19,NNW,348,1.0,6.0,74,0.00,,,0.00,WeatherCatV1.13B119,2013-02-08 07:15:00,
2013-02-08 01:20:00,29.8,22.5,30.19,NNE,16,5.0,5.0,74,0.00,,,0.00,WeatherCatV1.13B119,2013-02-08 07:20:00,
2013-02-08 01:25:00,29.7,22.4,30.19,NNE,30,4.0,5.0,74,0.00,,,0.00,WeatherCatV1.13B119,2013-02-08 07:25:00,
2013-02-08 01:30:00,29.7,22.4,30.20,NNE,28,3.0,5.0,74,0.00,,,0.00,WeatherCatV1.13B119,2013-02-08 07:30:00,
2013-02-08 01:35:00,29.7,22.4,30.20,NNW,346,1.0,4.0,74,0.00,,,0.00,WeatherCatV1.13B119,2013-02-08 07:35:00,
2013-02-08 01:40:00,29.7,22.4,30.20,NNW,346,0.0,2.0,74,0.00,,,0.00,WeatherCatV1.13B119,2013-02-08 07:40:00,
2013-02-08 01:45:00,29.7,22.4,30.19,NNW,346,2.0,4.0,74,0.00,,,0.00,WeatherCatV1.13B119,2013-02-08 07:45:00,
2013-02-08 01:50:00,29.7,22.8,30.19,North,355,2.0,4.0,75,0.00,,,0.00,WeatherCatV1.13B119,2013-02-08 07:50:00,
2013-02-08 01:55:00,29.5,23.2,30.19,NNE,24,3.0,3.0,77,0.00,,,0.00,WeatherCatV1.13B119,2013-02-08 07:55:00,
2013-02-08 02:00:00,29.3,23.3,30.20,NNE,28,2.0,4.0,78,0.00,,,0.00,WeatherCatV1.13B119,2013-02-08 08:00:00,
2013-02-08 02:05:00,29.0,23.3,30.20,NE,48,1.0,3.0,79,0.00,,,0.00,WeatherCatV1.13B119,2013-02-08 08:05:00,
2013-02-08 02:10:00,28.7,23.0,30.20,NE,46,4.0,4.0,79,0.00,,,0.00,WeatherCatV1.13B119,2013-02-08 08:10:00,
2013-02-08 02:15:00,28.5,23.1,30.20,NNE,24,3.0,5.0,80,0.00,,,0.00,WeatherCatV1.13B119,2013-02-08 08:15:00,
2013-02-08 02:20:00,28.4,23.3,30.20,NE,50,1.0,9.0,81,0.00,,,0.00,WeatherCatV1.13B119,2013-02-08 08:20:00,
2013-02-08 02:25:00,28.2,23.1,30.20,NE,36,4.0,5.0,81,0.00,,,0.00,WeatherCatV1.13B119,2013-02-08 08:25:00,
2013-02-08 02:30:00,28.1,23.0,30.21,NE,37,0.0,3.0,81,0.00,,,0.00,WeatherCatV1.13B119,2013-02-08 08:30:00,
2013-02-08 02:35:00,28.1,23.0,30.21,NE,38,2.0,4.0,81,0.00,,,0.00,WeatherCatV1.13B119,2013-02-08 08:35:00,
2013-02-08 02:40:00,28.1,23.0,30.21,NE,39,0.0,5.0,81,0.00,,,0.00,WeatherCatV1.13B119,2013-02-08 08:40:00,
2013-02-08 02:45:00,27.9,22.8,30.21,NE,40,2.0,3.0,81,0.00,,,0.00,WeatherCatV1.13B119,2013-02-08 08:45:00,
2013-02-08 02:50:00,27.9,22.8,30.21,NNE,33,3.0,7.0,81,0.00,,,0.00,WeatherCatV1.13B119,2013-02-08 08:50:00,
2013-02-08 02:55:00,27.8,22.7,30.21,NNW,329,1.0,6.0,81,0.00,,,0.00,WeatherCatV1.13B119,2013-02-08 08:55:00,
2013-02-08 03:00:00,27.6,22.5,30.22,North,0,0.0,3.0,81,0.00,,,0.00,WeatherCatV1.13B119,2013-02-08 09:00:00,
2013-02-08 03:05:00,27.6,22.8,30.22,NE,40,2.0,4.0,82,0.00,,,0.00,WeatherCatV1.13B119,2013-02-08 09:05:00,
2013-02-08 03:10:00,27.6,22.8,30.22,NNE,19,2.0,6.0,82,0.00,,,0.00,WeatherCatV1.13B119,2013-02-08 09:10:00,
2013-02-08 03:15:00,27.5,22.7,30.22,North,9,0.0,6.0,82,0.00,,,0.00,WeatherCatV1.13B119,2013-02-08 09:15:00,
2013-02-08 03:20:00,27.5,22.7,30.22,North,11,1.0,2.0,82,0.00,,,0.00,WeatherCatV1.13B119,2013-02-08 09:20:00,
2013-02-08 03:25:00,27.5,22.7,30.22,North,5,2.0,3.0,82,0.00,,,0.00,WeatherCatV1.13B119,2013-02-08 09:25:00,
2013-02-08 03:30:00,27.5,22.7,30.22,North,355,1.0,4.0,82,0.00,,,0.00,WeatherCatV1.13B119,2013-02-08 09:30:00,
2013-02-08 03:35:00,27.5,22.7,30.22,North,351,0.0,2.0,82,0.00,,,0.00,WeatherCatV1.13B119,2013-02-08 09:35:00,
2013-02-08 03:40:00,27.5,22.7,30.22,North,351,1.0,1.0,82,0.00,,,0.00,WeatherCatV1.13B119,2013-02-08 09:40:00,
2013-02-08 03:45:00,27.5,22.7,30.22,North,351,0.0,2.0,82,0.00,,,0.00,WeatherCatV1.13B119,2013-02-08 09:45:00,
2013-02-08 03:50:00,27.5,22.7,30.22,North,351,0.0,2.0,82,0.00,,,0.00,WeatherCatV1.13B119,2013-02-08 09:50:00,
2013-02-08 03:55:00,27.5,22.7,30.22,NE,34,1.0,5.0,82,0.00,,,0.00,WeatherCatV1.13B119,2013-02-08 09:55:00,
2013-02-08 04:00:00,27.3,22.5,30.22,NNE,32,1.0,2.0,82,0.00,,,0.00,WeatherCatV1.13B119,2013-02-08 10:00:00,
2013-02-08 04:05:00,27.2,22.4,30.22,NNE,30,2.0,4.0,82,0.00,,,0.00,WeatherCatV1.13B119,2013-02-08 10:05:00,
2013-02-08 04:10:00,27.0,22.5,30.22,NE,42,0.0,2.0,83,0.00,,,0.00,WeatherCatV1.13B119,2013-02-08 10:10:00,
2013-02-08 04:15:00,27.0,22.5,30.23,NE,36,1.0,4.0,83,0.00,,,0.00,WeatherCatV1.13B119,2013-02-08 10:15:00,
2013-02-08 04:20:00,26.7,22.2,30.23,NE,34,0.0,3.0,83,0.00,,,0.00,WeatherCatV1.13B119,2013-02-08 10:20:00,
2013-02-08 04:25:00,26.6,22.1,30.23,NNE,13,1.0,5.0,83,0.00,,,0.00,WeatherCatV1.13B119,2013-02-08 10:25:00,
2013-02-08 04:30:00,26.6,22.4,30.23,NNE,13,1.0,3.0,84,0.00,,,0.00,WeatherCatV1.13B119,2013-02-08 10:30:00,
2013-02-08 04:35:00,26.4,22.2,30.23,ENE,57,2.0,7.0,84,0.00,,,0.00,WeatherCatV1.13B119,2013-02-08 10:35:00,
2013-02-08 04:40:00,26.4,22.2,30.23,NE,41,2.0,3.0,84,0.00,,,0.00,WeatherCatV1.13B119,2013-02-08 10:40:00,
2013-02-08 04:45:00,26.3,22.1,30.23,North,9,4.0,5.0,84,0.00,,,0.00,WeatherCatV1.13B119,2013-02-08 10:45:00,
2013-02-08 04:50:00,26.3,22.4,30.23,North,5,2.0,5.0,85,0.00,,,0.00,WeatherCatV1.13B119,2013-02-08 10:50:00,
2013-02-08 04:55:00,26.3,22.4,30.23,NE,39,6.0,6.0,85,0.00,,,0.00,WeatherCatV1.13B119,2013-02-08 10:55:00,
2013-02-08 05:00:00,26.3,22.4,30.23,NE,37,4.0,4.0,85,0.00,,,0.00,WeatherCatV1.13B119,2013-02-08 11:00:00,
2013-02-08 05:05:00,26.1,22.2,30.23,NE,37,0.0,4.0,85,0.00,,,0.00,WeatherCatV1.13B119,2013-02-08 11:05:00,
2013-02-08 05:10:00,26.3,22.4,30.23,NE,36,1.0,3.0,85,0.00,,,0.00,WeatherCatV1.13B119,2013-02-08 11:10:00,
2013-02-08 05:15:00,26.3,22.4,30.23,NNE,30,4.0,5.0,85,0.00,,,0.00,WeatherCatV1.13B119,2013-02-08 11:15:00,
2013-02-08 05:20:00,26.3,22.4,30.23,NNE,18,0.0,5.0,85,0.00,,,0.00,WeatherCatV1.13B119,2013-02-08 11:20:00,
2013-02-08 05:25:00,26.3,22.4,30.23,NE,42,4.0,8.0,85,0.00,,,0.00,WeatherCatV1.13B119,2013-02-08 11:25:00,
2013-02-08 05:30:00,26.1,22.2,30.23,NNE,30,3.0,3.0,85,0.00,,,0.00,WeatherCatV1.13B119,2013-02-08 11:30:00,
2013-02-08 05:35:00,26.0,22.1,30.23,North,5,1.0,3.0,85,0.00,,,0.00,WeatherCatV1.13B119,2013-02-08 11:35:00,
2013-02-08 05:40:00,26.0,22.1,30.23,NNE,30,5.0,5.0,85,0.00,,,0.00,WeatherCatV1.13B119,2013-02-08 11:40:00,
2013-02-08 05:45:00,26.0,22.1,30.23,NNE,27,2.0,4.0,85,0.00,,,0.00,WeatherCatV1.13B119,2013-02-08 11:45:00,
2013-02-08 05:50:00,26.0,22.1,30.23,North,0,4.0,5.0,85,0.00,,,0.00,WeatherCatV1.13B119,2013-02-08 11:50:00,
2013-02-08 05:55:00,26.0,22.4,30.23,North,0,4.0,4.0,86,0.00,,,0.00,WeatherCatV1.13B119,2013-02-08 11:55:00,
2013-02-08 06:00:00,26.0,22.4,30.25,North,0,2.0,4.0,86,0.00,,,0.00,WeatherCatV1.13B119,2013-02-08 12:00:00,
2013-02-08 06:05:00,26.0,22.4,30.25,North,350,0.0,2.0,86,0.00,,,0.00,WeatherCatV1.13B119,2013-02-08 12:05:00,
2013-02-08 06:10:00,26.0,22.4,30.25,North,0,2.0,2.0,86,0.00,,,0.00,WeatherCatV1.13B119,2013-02-08 12:10:00,
2013-02-08 06:15:00,26.0,22.4,30.25,North,0,2.0,2.0,86,0.00,,,0.00,WeatherCatV1.13B119,2013-02-08 12:15:00,
2013-02-08 06:20:00,26.0,22.4,30.25,North,0,0.0,2.0,86,0.00,,,0.00,WeatherCatV1.13B119,2013-02-08 12:20:00,
2013-02-08 06:25:00,26.0,22.4,30.25,North,0,0.0,0.0,86,0.00,,,0.00,WeatherCatV1.13B119,2013-02-08 12:25:00,
2013-02-08 06:30:00,26.0,22.4,30.25,North,0,0.0,1.0,86,0.00,,,0.00,WeatherCatV1.13B119,2013-02-08 12:30:00,
2013-02-08 06:35:00,26.0,22.4,30.25,North,0,0.0,0.0,86,0.00,,,0.00,WeatherCatV1.13B119,2013-02-08 12:35:00,
2013-02-08 06:40:00,26.0,22.4,30.25,North,0,0.0,2.0,86,0.00,,,0.00,WeatherCatV1.13B119,2013-02-08 12:40:00,
2013-02-08 06:45:00,26.1,22.5,30.25,North,0,2.0,2.0,86,0.00,,,0.00,WeatherCatV1.13B119,2013-02-08 12:45:00,
2013-02-08 06:50:00,26.1,22.5,30.25,North,355,0.0,3.0,86,0.00,,,0.00,WeatherCatV1.13B119,2013-02-08 12:50:00,
2013-02-08 06:55:00,26.1,22.5,30.25,North,0,0.0,0.0,86,0.00,,,0.00,WeatherCatV1.13B119,2013-02-08 12:55:00,
2013-02-08 07:00:00,26.1,22.5,30.26,North,0,2.0,2.0,86,0.00,,,0.00,WeatherCatV1.13B119,2013-02-08 13:00:00,
2013-02-08 07:05:00,26.1,22.5,30.26,North,0,0.0,0.0,86,0.00,,,0.00,WeatherCatV1.13B119,2013-02-08 13:05:00,
2013-02-08 07:10:00,26.1,22.5,30.26,North,0,0.0,1.0,86,0.00,,,0.00,WeatherCatV1.13B119,2013-02-08 13:10:00,
2013-02-08 07:15:00,26.1,22.5,30.26,North,0,0.0,2.0,86,0.00,,,0.00,WeatherCatV1.13B119,2013-02-08 13:15:00,
2013-02-08 07:20:00,26.1,22.5,30.26,North,0,0.0,2.0,86,0.00,,,0.00,WeatherCatV1.13B119,2013-02-08 13:20:00,
2013-02-08 07:25:00,26.3,22.7,30.26,North,0,0.0,1.0,86,0.00,,,0.00,WeatherCatV1.13B119,2013-02-08 13:25:00,
2013-02-08 07:30:00,26.1,22.5,30.26,NNE,19,0.0,2.0,86,0.00,,,0.00,WeatherCatV1.13B119,2013-02-08 13:30:00,
2013-02-08 07:35:00,26.0,22.4,30.26,NNE,19,0.0,1.0,86,0.00,,,0.00,WeatherCatV1.13B119,2013-02-08 13:35:00,
2013-02-08 07:40:00,26.0,22.4,30.26,NNE,19,1.0,2.0,86,0.00,,,0.00,WeatherCatV1.13B119,2013-02-08 13:40:00,
2013-02-08 07:45:00,26.0,22.4,30.26,NNE,19,2.0,2.0,86,0.00,,,0.00,WeatherCatV1.13B119,2013-02-08 13:45:00,
2013-02-08 07:50:00,25.8,22.2,30.26,NNE,19,0.0,1.0,86,0.00,,,0.00,WeatherCatV1.13B119,2013-02-08 13:50:00,
2013-02-08 07:55:00,25.8,22.2,30.26,NNE,19,0.0,0.0,86,0.00,,,0.00,WeatherCatV1.13B119,2013-02-08 13:55:00,
2013-02-08 08:00:00,25.8,22.2,30.26,NNE,19,1.0,2.0,86,0.00,,,0.00,WeatherCatV1.13B119,2013-02-08 14:00:00,
2013-02-08 08:05:00,25.8,22.2,30.26,NNE,19,0.0,0.0,86,0.00,,,0.00,WeatherCatV1.13B119,2013-02-08 14:05:00,
2013-02-08 08:10:00,25.8,22.2,30.26,NNE,19,0.0,0.0,86,0.00,,,0.00,WeatherCatV1.13B119,2013-02-08 14:10:00,
2013-02-08 08:15:00,25.8,22.2,30.26,NNE,26,0.0,0.0,86,0.00,,,0.00,WeatherCatV1.13B119,2013-02-08 14:15:00,
2013-02-08 08:20:00,25.8,22.2,30.26,ENE,69,1.0,2.0,86,0.00,,,0.00,WeatherCatV1.13B119,2013-02-08 14:20:00,
2013-02-08 08:25:00,25.8,22.2,30.26,ENE,69,0.0,0.0,86,0.00,,,0.00,WeatherCatV1.13B119,2013-02-08 14:25:00,
2013-02-08 08:30:00,26.0,22.4,30.27,ENE,69,0.0,0.0,86,0.00,,,0.00,WeatherCatV1.13B119,2013-02-08 14:30:00,
2013-02-08 08:35:00,26.0,22.4,30.27,ENE,69,0.0,1.0,86,0.00,,,0.00,WeatherCatV1.13B119,2013-02-08 14:35:00,
2013-02-08 08:40:00,26.0,22.4,30.27,ENE,69,1.0,2.0,86,0.00,,,0.00,WeatherCatV1.13B119,2013-02-08 14:40:00,
2013-02-08 08:45:00,26.0,22.4,30.27,East,80,2.0,2.0,86,0.00,,,0.00,WeatherCatV1.13B119,2013-02-08 14:45:00,
2013-02-08 08:50:00,26.0,22.4,30.27,East,80,2.0,2.0,86,0.00,,,0.00,WeatherCatV1.13B119,2013-02-08 14:50:00,
2013-02-08 08:55:00,26.0,22.4,30.27,East,80,0.0,0.0,86,0.00,,,0.00,WeatherCatV1.13B119,2013-02-08 14:55:00,
2013-02-08 09:00:00,26.0,22.4,30.27,East,80,1.0,2.0,86,0.00,,,0.00,WeatherCatV1.13B119,2013-02-08 15:00:00,
2013-02-08 09:05:00,26.1,22.5,30.27,SSE,159,2.0,4.0,86,0.00,,,0.00,WeatherCatV1.13B119,2013-02-08 15:05:00,
2013-02-08 09:10:00,26.3,22.7,30.27,SSE,159,0.0,2.0,86,0.00,,,0.00,WeatherCatV1.13B119,2013-02-08 15:10:00,
2013-02-08 09:15:00,26.4,22.8,30.26,SSE,163,0.0,4.0,86,0.00,,,0.00,WeatherCatV1.13B119,2013-02-08 15:15:00,
2013-02-08 09:20:00,26.6,23.0,30.26,SSE,163,0.0,2.0,86,0.00,,,0.00,WeatherCatV1.13B119,2013-02-08 15:20:00,
2013-02-08 09:25:00,26.3,22.4,30.26,SE,145,0.0,2.0,85,0.00,,,0.00,WeatherCatV1.13B119,2013-02-08 15:25:00,
2013-02-08 09:30:00,26.3,22.4,30.27,SE,144,0.0,3.0,85,0.00,,,0.00,WeatherCatV1.13B119,2013-02-08 15:30:00,
2013-02-08 09:35:00,26.3,22.4,30.27,SE,144,0.0,0.0,85,0.00,,,0.00,WeatherCatV1.13B119,2013-02-08 15:35:00,
2013-02-08 09:40:00,26.4,22.5,30.27,SE,144,2.0,2.0,85,0.00,,,0.00,WeatherCatV1.13B119,2013-02-08 15:40:00,
2013-02-08 09:45:00,26.4,22.5,30.27,SE,143,0.0,2.0,85,0.00,,,0.00,WeatherCatV1.13B119,2013-02-08 15:45:00,
2013-02-08 09:50:00,26.3,22.4,30.27,ENE,76,3.0,4.0,85,0.00,,,0.00,WeatherCatV1.13B119,2013-02-08 15:50:00,
2013-02-08 09:55:00,26.3,22.4,30.27,SSE,148,2.0,3.0,85,0.00,,,0.00,WeatherCatV1.13B119,2013-02-08 15:55:00,
2013-02-08 10:00:00,26.3,22.4,30.27,ENE,76,0.0,1.0,85,0.00,,,0.00,WeatherCatV1.13B119,2013-02-08 16:00:00,
2013-02-08 10:05:00,26.3,22.4,30.27,ENE,77,0.0,1.0,85,0.00,,,0.00,WeatherCatV1.13B119,2013-02-08 16:05:00,
2013-02-08 10:10:00,26.3,22.4,30.27,ENE,77,0.0,0.0,85,0.00,,,0.00,WeatherCatV1.13B119,2013-02-08 16:10:00,
2013-02-08 10:15:00,26.4,22.5,30.27,East,94,2.0,3.0,85,0.00,,,0.00,WeatherCatV1.13B119,2013-02-08 16:15:00,
2013-02-08 10:20:00,26.4,22.5,30.27,East,94,2.0,4.0,85,0.00,,,0.00,WeatherCatV1.13B119,2013-02-08 16:20:00,
2013-02-08 10:25:00,26.6,22.7,30.27,East,94,2.0,4.0,85,0.00,,,0.00,WeatherCatV1.13B119,2013-02-08 16:25:00,
2013-02-08 10:30:00,26.6,22.7,30.27,East,94,1.0,4.0,85,0.00,,,0.00,WeatherCatV1.13B119,2013-02-08 16:30:00,
2013-02-08 10:35:00,26.7,22.8,30.27,ESE,123,2.0,4.0,85,0.00,,,0.00,WeatherCatV1.13B119,2013-02-08 16:35:00,
2013-02-08 10:40:00,26.9,23.0,30.27,South,179,0.0,0.0,85,0.00,,,0.00,WeatherCatV1.13B119,2013-02-08 16:40:00,
2013-02-08 10:45:00,26.9,22.7,30.27,South,179,2.0,2.0,84,0.00,,,0.00,WeatherCatV1.13B119,2013-02-08 16:45:00,
2013-02-08 10:50:00,27.0,22.8,30.27,South,178,0.0,3.0,84,0.00,,,0.00,WeatherCatV1.13B119,2013-02-08 16:50:00,
2013-02-08 10:55:00,26.9,22.7,30.27,SSE,167,0.0,2.0,84,0.00,,,0.00,WeatherCatV1.13B119,2013-02-08 16:55:00,
2013-02-08 11:00:00,27.0,22.8,30.28,SSE,167,0.0,3.0,84,0.00,,,0.00,WeatherCatV1.13B119,2013-02-08 17:00:00,
2013-02-08 11:05:00,27.2,23.0,30.28,SSE,167,0.0,5.0,84,0.00,,,0.00,WeatherCatV1.13B119,2013-02-08 17:05:00,
2013-02-08 11:10:00,27.3,22.8,30.28,SSE,167,3.0,3.0,83,0.00,,,0.00,WeatherCatV1.13B119,2013-02-08 17:10:00,
2013-02-08 11:15:00,27.5,23.0,30.28,SSE,167,3.0,5.0,83,0.00,,,0.00,WeatherCatV1.13B119,2013-02-08 17:15:00,
2013-02-08 11:20:00,27.5,23.0,30.28,SSE,167,0.0,1.0,83,0.00,,,0.00,WeatherCatV1.13B119,2013-02-08 17:20:00,
2013-02-08 11:25:00,27.6,23.1,30.28,SSE,167,1.0,2.0,83,0.00,,,0.00,WeatherCatV1.13B119,2013-02-08 17:25:00,
2013-02-08 11:30:00,27.8,23.3,30.29,SSE,168,2.0,3.0,83,0.00,,,0.00,WeatherCatV1.13B119,2013-02-08 17:30:00,
2013-02-08 11:35:00,27.9,23.4,30.29,SSE,168,0.0,0.0,83,0.00,,,0.00,WeatherCatV1.13B119,2013-02-08 17:35:00,
2013-02-08 11:40:00,27.9,23.4,30.29,SSE,168,1.0,1.0,83,0.00,,,0.00,WeatherCatV1.13B119,2013-02-08 17:40:00,
2013-02-08 11:45:00,28.1,23.3,30.28,SSE,168,1.0,2.0,82,0.00,,,0.00,WeatherCatV1.13B119,2013-02-08 17:45:00,
2013-02-08 11:50:00,28.1,23.3,30.28,SSE,168,0.0,2.0,82,0.00,,,0.00,WeatherCatV1.13B119,2013-02-08 17:50:00,
2013-02-08 11:55:00,28.1,23.0,30.28,SSE,162,1.0,3.0,81,0.00,,,0.00,WeatherCatV1.13B119,2013-02-08 17:55:00,
2013-02-08 12:00:00,27.9,22.5,30.28,SSE,157,2.0,3.0,80,0.00,,,0.00,WeatherCatV1.13B119,2013-02-08 18:00:00,
2013-02-08 12:05:00,27.8,22.7,30.28,SSE,148,1.0,4.0,81,0.00,,,0.00,WeatherCatV1.13B119,2013-02-08 18:05:00,
2013-02-08 12:10:00,27.9,22.8,30.28,SSE,148,2.0,4.0,81,0.00,,,0.00,WeatherCatV1.13B119,2013-02-08 18:10:00,
2013-02-08 12:15:00,28.2,23.1,30.28,SSE,159,3.0,3.0,81,0.00,,,0.00,WeatherCatV1.13B119,2013-02-08 18:15:00,
2013-02-08 12:20:00,28.5,23.4,30.28,SSE,159,0.0,3.0,81,0.00,,,0.00,WeatherCatV1.13B119,2013-02-08 18:20:00,
2013-02-08 12:25:00,28.8,23.7,30.28,SSE,159,3.0,4.0,81,0.00,,,0.00,WeatherCatV1.13B119,2013-02-08 18:25:00,
2013-02-08 12:30:00,28.8,23.1,30.28,SSE,159,1.0,3.0,79,0.00,,,0.00,WeatherCatV1.13B119,2013-02-08 18:30:00,
2013-02-08 12:35:00,28.8,23.1,30.28,SSE,159,0.0,3.0,79,0.00,,,0.00,WeatherCatV1.13B119,2013-02-08 18:35:00,
2013-02-08 12:40:00,29.0,23.3,30.28,SSE,159,0.0,0.0,79,0.00,,,0.00,WeatherCatV1.13B119,2013-02-08 18:40:00,
2013-02-08 12:45:00,29.1,23.7,30.27,SSE,159,0.0,1.0,80,0.00,,,0.00,WeatherCatV1.13B119,2013-02-08 18:45:00,
2013-02-08 12:50:00,29.4,24.0,30.27,South,191,2.0,3.0,80,0.00,,,0.00,WeatherCatV1.13B119,2013-02-08 18:50:00,
2013-02-08 12:55:00,29.7,24.0,30.27,South,178,3.0,6.0,79,0.00,,,0.00,WeatherCatV1.13B119,2013-02-08 18:55:00,
2013-02-08 13:00:00,30.0,24.0,30.26,South,178,4.0,7.0,78,0.00,,,0.00,WeatherCatV1.13B119,2013-02-08 19:00:00,
2013-02-08 13:05:00,30.0,23.7,30.26,South,184,0.0,4.0,77,0.00,,,0.00,WeatherCatV1.13B119,2013-02-08 19:05:00,
2013-02-08 13:10:00,30.0,23.7,30.26,South,183,1.0,3.0,77,0.00,,,0.00,WeatherCatV1.13B119,2013-02-08 19:10:00,
2013-02-08 13:15:00,30.0,23.7,30.25,South,180,3.0,4.0,77,0.00,,,0.00,WeatherCatV1.13B119,2013-02-08 19:15:00,
2013-02-08 13:20:00,30.1,24.1,30.25,South,176,3.0,3.0,78,0.00,,,0.00,WeatherCatV1.13B119,2013-02-08 19:20:00,
2013-02-08 13:25:00,30.1,23.8,30.25,SE,138,2.0,5.0,77,0.00,,,0.00,WeatherCatV1.13B119,2013-02-08 19:25:00,
2013-02-08 13:30:00,30.1,23.8,30.25,SSE,161,0.0,4.0,77,0.00,,,0.00,WeatherCatV1.13B119,2013-02-08 19:30:00,
2013-02-08 13:35:00,30.1,23.8,30.25,ESE,116,4.0,4.0,77,0.00,,,0.00,WeatherCatV1.13B119,2013-02-08 19:35:00,
2013-02-08 13:40:00,30.1,23.5,30.25,ESE,120,4.0,4.0,76,0.00,,,0.00,WeatherCatV1.13B119,2013-02-08 19:40:00,
2013-02-08 13:45:00,30.4,24.1,30.23,East,82,5.0,5.0,77,0.00,,,0.00,WeatherCatV1.13B119,2013-02-08 19:45:00,
2013-02-08 13:50:00,30.3,24.0,30.23,East,82,0.0,3.0,77,0.00,,,0.00,WeatherCatV1.13B119,2013-02-08 19:50:00,
2013-02-08 13:55:00,30.6,24.3,30.23,SE,142,4.0,5.0,77,0.00,,,0.00,WeatherCatV1.13B119,2013-02-08 19:55:00,
2013-02-08 14:00:00,30.7,24.4,30.21,SE,130,2.0,3.0,77,0.00,,,0.00,WeatherCatV1.13B119,2013-02-08 20:00:00,
2013-02-08 14:05:00,30.9,24.2,30.21,ESE,116,5.0,7.0,76,0.00,,,0.00,WeatherCatV1.13B119,2013-02-08 20:05:00,
2013-02-08 14:10:00,30.7,24.0,30.21,SSE,155,3.0,7.0,76,0.00,,,0.00,WeatherCatV1.13B119,2013-02-08 20:10:00,
2013-02-08 14:15:00,30.9,24.2,30.21,South,182,1.0,7.0,76,0.00,,,0.00,WeatherCatV1.13B119,2013-02-08 20:15:00,
2013-02-08 14:20:00,30.7,23.7,30.21,SE,126,6.0,6.0,75,0.00,,,0.00,WeatherCatV1.13B119,2013-02-08 20:20:00,
2013-02-08 14:25:00,30.7,24.0,30.21,ESE,119,3.0,7.0,76,0.00,,,0.00,WeatherCatV1.13B119,2013-02-08 20:25:00,
2013-02-08 14:30:00,30.7,24.0,30.20,SE,128,3.0,4.0,76,0.00,,,0.00,WeatherCatV1.13B119,2013-02-08 20:30:00,
2013-02-08 14:35:00,31.0,24.7,30.20,SSE,164,3.0,6.0,77,0.00,,,0.00,WeatherCatV1.13B119,2013-02-08 20:35:00,
2013-02-08 14:40:00,31.3,24.3,30.20,SE,138,2.0,4.0,75,0.00,,,0.00,WeatherCatV1.13B119,2013-02-08 20:40:00,
2013-02-08 14:45:00,31.5,24.8,30.18,South,176,0.0,9.0,76,0.00,,,0.00,WeatherCatV1.13B119,2013-02-08 20:45:00,
2013-02-08 14:50:00,31.9,24.9,30.18,South,177,7.0,10.0,75,0.00,,,0.00,WeatherCatV1.13B119,2013-02-08 20:50:00,
2013-02-08 14:55:00,32.2,24.9,30.18,SSE,167,5.0,10.0,74,0.00,,,0.00,WeatherCatV1.13B119,2013-02-08 20:55:00,
2013-02-08 15:00:00,32.5,25.2,30.17,South,181,3.0,9.0,74,0.00,,,0.00,WeatherCatV1.13B119,2013-02-08 21:00:00,
2013-02-08 15:05:00,32.8,25.4,30.17,SSE,167,4.0,5.0,74,0.00,,,0.00,WeatherCatV1.13B119,2013-02-08 21:05:00,
2013-02-08 15:10:00,32.8,25.1,30.17,ESE,116,2.0,4.0,73,0.00,,,0.00,WeatherCatV1.13B119,2013-02-08 21:10:00,
2013-02-08 15:15:00,32.7,25.3,30.17,SE,125,5.0,5.0,74,0.00,,,0.00,WeatherCatV1.13B119,2013-02-08 21:15:00,
2013-02-08 15:20:00,32.5,25.2,30.17,ESE,104,1.0,6.0,74,0.00,,,0.00,WeatherCatV1.13B119,2013-02-08 21:20:00,
2013-02-08 15:25:00,32.8,25.4,30.17,ESE,117,1.0,3.0,74,0.00,,,0.00,WeatherCatV1.13B119,2013-02-08 21:25:00,
2013-02-08 15:30:00,32.9,25.2,30.17,SE,128,1.0,5.0,73,0.00,,,0.00,WeatherCatV1.13B119,2013-02-08 21:30:00,
2013-02-08 15:35:00,32.8,25.1,30.17,ESE,109,4.0,6.0,73,0.00,,,0.00,WeatherCatV1.13B119,2013-02-08 21:35:00,
2013-02-08 15:40:00,32.7,25.7,30.17,SE,145,2.0,5.0,75,0.00,,,0.00,WeatherCatV1.13B119,2013-02-08 21:40:00,
2013-02-08 15:45:00,32.8,25.8,30.17,SE,132,4.0,6.0,75,0.00,,,0.00,WeatherCatV1.13B119,2013-02-08 21:45:00,
2013-02-08 15:50:00,32.7,25.7,30.17,SE,128,3.0,6.0,75,0.00,,,0.00,WeatherCatV1.13B119,2013-02-08 21:50:00,
2013-02-08 15:55:00,32.7,25.7,30.17,ESE,111,1.0,5.0,75,0.00,,,0.00,WeatherCatV1.13B119,2013-02-08 21:55:00,
2013-02-08 16:00:00,32.7,25.7,30.16,ESE,115,3.0,5.0,75,0.00,,,0.00,WeatherCatV1.13B119,2013-02-08 22:00:00,
2013-02-08 16:05:00,32.5,25.5,30.16,South,173,6.0,6.0,75,0.00,,,0.00,WeatherCatV1.13B119,2013-02-08 22:05:00,
2013-02-08 16:10:00,32.5,25.5,30.16,SE,138,3.0,4.0,75,0.00,,,0.00,WeatherCatV1.13B119,2013-02-08 22:10:00,
2013-02-08 16:15:00,32.5,25.5,30.15,ESE,114,4.0,6.0,75,0.00,,,0.00,WeatherCatV1.13B119,2013-02-08 22:15:00,
2013-02-08 16:20:00,32.4,25.7,30.15,ESE,121,3.0,5.0,76,0.00,,,0.00,WeatherCatV1.13B119,2013-02-08 22:20:00,
2013-02-08 16:25:00,32.2,25.5,30.15,SE,128,2.0,4.0,76,0.00,,,0.00,WeatherCatV1.13B119,2013-02-08 22:25:00,
2013-02-08 16:30:00,32.1,25.4,30.15,SE,129,5.0,7.0,76,0.00,,,0.00,WeatherCatV1.13B119,2013-02-08 22:30:00,
2013-02-08 16:35:00,32.1,25.7,30.15,ESE,117,1.0,4.0,77,0.00,,,0.00,WeatherCatV1.13B119,2013-02-08 22:35:00,
2013-02-08 16:40:00,31.8,25.4,30.15,ESE,117,1.0,4.0,77,0.00,,,0.00,WeatherCatV1.13B119,2013-02-08 22:40:00,
2013-02-08 16:45:00,31.6,25.5,30.15,SE,134,3.0,5.0,78,0.00,,,0.00,WeatherCatV1.13B119,2013-02-08 22:45:00,
2013-02-08 16:50:00,31.5,25.4,30.15,ESE,115,4.0,6.0,78,0.00,,,0.00,WeatherCatV1.13B119,2013-02-08 22:50:00,
2013-02-08 16:55:00,31.3,25.3,30.15,ESE,118,1.0,6.0,78,0.00,,,0.00,WeatherCatV1.13B119,2013-02-08 22:55:00,
2013-02-08 17:00:00,31.3,25.6,30.14,SE,128,5.0,5.0,79,0.00,,,0.00,WeatherCatV1.13B119,2013-02-08 23:00:00,
2013-02-08 17:05:00,31.2,25.5,30.14,ESE,117,5.0,5.0,79,0.00,,,0.00,WeatherCatV1.13B119,2013-02-08 23:05:00,
2013-02-08 17:10:00,31.0,25.6,30.14,ESE,109,1.0,5.0,80,0.00,,,0.00,WeatherCatV1.13B119,2013-02-08 23:10:00,
2013-02-08 17:15:00,30.9,25.5,30.15,SSE,151,5.0,6.0,80,0.00,,,0.00,WeatherCatV1.13B119,2013-02-08 23:15:00,
2013-02-08 17:20:00,30.9,25.8,30.15,SE,146,3.0,4.0,81,0.00,,,0.00,WeatherCatV1.13B119,2013-02-08 23:20:00,
2013-02-08 17:25:00,30.7,25.6,30.15,ESE,123,3.0,4.0,81,0.00,,,0.00,WeatherCatV1.13B119,2013-02-08 23:25:00,
2013-02-08 17:30:00,30.6,25.8,30.15,ESE,119,3.0,5.0,82,0.00,,,0.00,WeatherCatV1.13B119,2013-02-08 23:30:00,
2013-02-08 17:35:00,30.4,25.6,30.15,ESE,119,4.0,4.0,82,0.00,,,0.00,WeatherCatV1.13B119,2013-02-08 23:35:00,
2013-02-08 17:40:00,30.3,25.5,30.15,SE,135,3.0,7.0,82,0.00,,,0.00,WeatherCatV1.13B119,2013-02-08 23:40:00,
2013-02-08 17:45:00,30.1,25.6,30.15,SE,132,4.0,5.0,83,0.00,,,0.00,WeatherCatV1.13B119,2013-02-08 23:45:00,
2013-02-08 17:50:00,30.0,25.5,30.15,SSE,158,1.0,7.0,83,0.00,,,0.00,WeatherCatV1.13B119,2013-02-08 23:50:00,
2013-02-08 17:55:00,29.8,25.3,30.15,ESE,115,2.0,5.0,83,0.00,,,0.00,WeatherCatV1.13B119,2013-02-08 23:55:00,
2013-02-08 18:00:00,29.8,25.6,30.14,SE,137,3.0,3.0,84,0.00,,,0.00,WeatherCatV1.13B119,2013-02-09 00:00:00,
2013-02-08 18:05:00,29.7,25.5,30.14,SE,144,2.0,4.0,84,0.00,,,0.00,WeatherCatV1.13B119,2013-02-09 00:05:00,
2013-02-08 18:10:00,29.5,25.3,30.14,SE,142,0.0,4.0,84,0.00,,,0.00,WeatherCatV1.13B119,2013-02-09 00:10:00,
2013-02-08 18:15:00,29.5,25.6,30.14,SE,135,2.0,4.0,85,0.00,,,0.00,WeatherCatV1.13B119,2013-02-09 00:15:00,
2013-02-08 18:20:00,29.5,25.6,30.14,ESE,117,4.0,5.0,85,0.00,,,0.00,WeatherCatV1.13B119,2013-02-09 00:20:00,
2013-02-08 18:25:00,29.5,25.6,30.14,SE,125,5.0,5.0,85,0.00,,,0.00,WeatherCatV1.13B119,2013-02-09 00:25:00,
2013-02-08 18:30:00,29.4,25.5,30.14,ESE,113,3.0,5.0,85,0.00,,,0.00,WeatherCatV1.13B119,2013-02-09 00:30:00,
2013-02-08 18:35:00,29.4,25.5,30.14,ESE,118,3.0,5.0,85,0.00,,,0.00,WeatherCatV1.13B119,2013-02-09 00:35:00,
2013-02-08 18:40:00,29.4,25.5,30.14,SE,126,4.0,5.0,85,0.00,,,0.00,WeatherCatV1.13B119,2013-02-09 00:40:00,
2013-02-08 18:45:00,29.4,25.5,30.13,East,98,5.0,6.0,85,0.00,,,0.00,WeatherCatV1.13B119,2013-02-09 00:45:00,
2013-02-08 18:50:00,29.4,25.7,30.13,East,100,2.0,4.0,86,0.00,,,0.00,WeatherCatV1.13B119,2013-02-09 00:50:00,
2013-02-08 18:55:00,29.3,25.6,30.13,SE,125,2.0,9.0,86,0.00,,,0.00,WeatherCatV1.13B119,2013-02-09 00:55:00,
2013-02-08 19:00:00,29.3,25.6,30.13,SE,124,2.0,4.0,86,0.00,,,0.00,WeatherCatV1.13B119,2013-02-09 01:00:00,
2013-02-08 19:05:00,29.3,25.6,30.13,ESE,122,3.0,4.0,86,0.00,,,0.00,WeatherCatV1.13B119,2013-02-09 01:05:00,
2013-02-08 19:10:00,29.3,25.6,30.13,SE,127,4.0,6.0,86,0.00,,,0.00,WeatherCatV1.13B119,2013-02-09 01:10:00,
2013-02-08 19:15:00,29.3,25.6,30.14,SE,144,3.0,8.0,86,0.00,,,0.00,WeatherCatV1.13B119,2013-02-09 01:15:00,
2013-02-08 19:20:00,29.3,25.6,30.14,East,100,2.0,4.0,86,0.00,,,0.00,WeatherCatV1.13B119,2013-02-09 01:20:00,
2013-02-08 19:25:00,29.1,25.4,30.14,SE,135,1.0,4.0,86,0.00,,,0.00,WeatherCatV1.13B119,2013-02-09 01:25:00,
2013-02-08 19:30:00,29.1,25.7,30.14,SE,130,3.0,5.0,87,0.00,,,0.00,WeatherCatV1.13B119,2013-02-09 01:30:00,
2013-02-08 19:35:00,29.1,25.7,30.14,SE,134,3.0,5.0,87,0.00,,,0.00,WeatherCatV1.13B119,2013-02-09 01:35:00,
2013-02-08 19:40:00,29.1,25.7,30.14,SE,136,3.0,5.0,87,0.00,,,0.00,WeatherCatV1.13B119,2013-02-09 01:40:00,
2013-02-08 19:45:00,29.1,25.7,30.12,SE,145,3.0,3.0,87,0.00,,,0.00,WeatherCatV1.13B119,2013-02-09 01:45:00,
2013-02-08 19:50:00,29.1,25.7,30.12,SE,132,2.0,3.0,87,0.00,,,0.00,WeatherCatV1.13B119,2013-02-09 01:50:00,
2013-02-08 19:55:00,29.1,25.7,30.12,SE,129,2.0,4.0,87,0.00,,,0.00,WeatherCatV1.13B119,2013-02-09 01:55:00,
2013-02-08 20:00:00,29.1,26.3,30.11,SE,136,3.0,4.0,89,0.00,,,0.00,WeatherCatV1.13B119,2013-02-09 02:00:00,
2013-02-08 20:05:00,29.1,25.7,30.11,SSE,156,3.0,9.0,87,0.00,,,0.00,WeatherCatV1.13B119,2013-02-09 02:05:00,
2013-02-08 20:10:00,29.1,25.7,30.11,SSE,147,4.0,4.0,87,0.00,,,0.00,WeatherCatV1.13B119,2013-02-09 02:10:00,
2013-02-08 20:15:00,29.1,25.7,30.11,SE,138,0.0,6.0,87,0.00,,,0.00,WeatherCatV1.13B119,2013-02-09 02:15:00,
2013-02-08 20:20:00,29.1,25.7,30.11,SE,142,2.0,6.0,87,0.00,,,0.00,WeatherCatV1.13B119,2013-02-09 02:20:00,
2013-02-08 20:25:00,29.0,25.6,30.11,SE,132,1.0,4.0,87,0.00,,,0.00,WeatherCatV1.13B119,2013-02-09 02:25:00,
2013-02-08 20:30:00,29.0,25.6,30.12,South,180,2.0,3.0,87,0.00,,,0.00,WeatherCatV1.13B119,2013-02-09 02:30:00,
2013-02-08 20:35:00,29.0,25.6,30.12,SSE,156,1.0,4.0,87,0.00,,,0.00,WeatherCatV1.13B119,2013-02-09 02:35:00,
2013-02-08 20:40:00,29.0,25.6,30.12,SE,128,2.0,5.0,87,0.00,,,0.00,WeatherCatV1.13B119,2013-02-09 02:40:00,
2013-02-08 20:45:00,29.0,25.6,30.11,SE,132,3.0,10.0,87,0.00,,,0.00,WeatherCatV1.13B119,2013-02-09 02:45:00,
2013-02-08 20:50:00,29.0,25.6,30.11,SE,145,4.0,5.0,87,0.00,,,0.00,WeatherCatV1.13B119,2013-02-09 02:50:00,
2013-02-08 20:55:00,29.0,25.9,30.11,SE,136,2.0,7.0,88,0.00,,,0.00,WeatherCatV1.13B119,2013-02-09 02:55:00,
2013-02-08 21:00:00,29.0,25.9,30.11,ESE,114,3.0,5.0,88,0.00,,,0.00,WeatherCatV1.13B119,2013-02-09 03:00:00,
2013-02-08 21:05:00,29.0,25.6,30.11,ESE,122,4.0,5.0,87,0.00,,,0.00,WeatherCatV1.13B119,2013-02-09 03:05:00,
2013-02-08 21:10:00,29.0,25.9,30.11,SE,140,2.0,5.0,88,0.00,,,0.00,WeatherCatV1.13B119,2013-02-09 03:10:00,
2013-02-08 21:15:00,28.8,25.7,30.11,SE,140,3.0,4.0,88,0.00,,,0.00,WeatherCatV1.13B119,2013-02-09 03:15:00,
2013-02-08 21:20:00,28.8,25.7,30.11,SE,142,3.0,7.0,88,0.00,,,0.00,WeatherCatV1.13B119,2013-02-09 03:20:00,
2013-02-08 21:25:00,28.8,25.7,30.11,East,98,4.0,7.0,88,0.00,,,0.00,WeatherCatV1.13B119,2013-02-09 03:25:00,
2013-02-08 21:30:00,28.8,25.7,30.10,SE,134,2.0,5.0,88,0.00,,,0.00,WeatherCatV1.13B119,2013-02-09 03:30:00,
2013-02-08 21:35:00,28.8,25.7,30.10,SE,131,3.0,5.0,88,0.00,,,0.00,WeatherCatV1.13B119,2013-02-09 03:35:00,
2013-02-08 21:40:00,29.0,25.9,30.10,SE,136,3.0,7.0,88,0.00,,,0.00,WeatherCatV1.13B119,2013-02-09 03:40:00,
2013-02-08 21:45:00,28.8,25.7,30.10,SE,134,2.0,6.0,88,0.00,,,0.00,WeatherCatV1.13B119,2013-02-09 03:45:00,
2013-02-08 21:50:00,28.8,25.7,30.10,SE,139,3.0,6.0,88,0.00,,,0.00,WeatherCatV1.13B119,2013-02-09 03:50:00,
2013-02-08 21:55:00,28.8,25.7,30.10,SE,134,3.0,6.0,88,0.00,,,0.00,WeatherCatV1.13B119,2013-02-09 03:55:00,
2013-02-08 22:00:00,28.7,25.6,30.09,SE,138,4.0,6.0,88,0.00,,,0.00,WeatherCatV1.13B119,2013-02-09 04:00:00,
2013-02-08 22:05:00,28.7,25.6,30.09,SE,131,1.0,3.0,88,0.00,,,0.00,WeatherCatV1.13B119,2013-02-09 04:05:00,
2013-02-08 22:10:00,28.7,25.6,30.09,SE,132,3.0,4.0,88,0.00,,,0.00,WeatherCatV1.13B119,2013-02-09 04:10:00,
2013-02-08 22:15:00,28.5,25.4,30.09,SSE,166,3.0,7.0,88,0.00,,,0.00,WeatherCatV1.13B119,2013-02-09 04:15:00,
2013-02-08 22:20:00,28.5,25.4,30.09,SSE,160,2.0,6.0,88,0.00,,,0.00,WeatherCatV1.13B119,2013-02-09 04:20:00,
2013-02-08 22:25:00,28.5,25.4,30.09,SE,145,2.0,5.0,88,0.00,,,0.00,WeatherCatV1.13B119,2013-02-09 04:25:00,
2013-02-08 22:30:00,28.4,25.3,30.11,SE,132,2.0,5.0,88,0.00,,,0.00,WeatherCatV1.13B119,2013-02-09 04:30:00,
2013-02-08 22:35:00,28.4,25.3,30.11,SE,134,3.0,7.0,88,0.00,,,0.00,WeatherCatV1.13B119,2013-02-09 04:35:00,
2013-02-08 22:40:00,28.2,25.1,30.11,SE,133,3.0,4.0,88,0.00,,,0.00,WeatherCatV1.13B119,2013-02-09 04:40:00,
2013-02-08 22:45:00,28.2,25.1,30.11,SE,126,3.0,7.0,88,0.00,,,0.00,WeatherCatV1.13B119,2013-02-09 04:45:00,
2013-02-08 22:50:00,28.1,25.3,30.11,SE,134,4.0,4.0,89,0.00,,,0.00,WeatherCatV1.13B119,2013-02-09 04:50:00,
2013-02-08 22:55:00,28.1,25.3,30.11,SE,134,2.0,4.0,89,0.00,,,0.00,WeatherCatV1.13B119,2013-02-09 04:55:00,
2013-02-08 23:00:00,28.1,25.3,30.11,SE,128,3.0,4.0,89,0.00,,,0.00,WeatherCatV1.13B119,2013-02-09 05:00:00,
2013-02-08 23:05:00,27.9,25.1,30.11,SE,135,1.0,5.0,89,0.00,,,0.00,WeatherCatV1.13B119,2013-02-09 05:05:00,
2013-02-08 23:10:00,27.9,25.1,30.11,SE,135,2.0,4.0,89,0.00,,,0.00,WeatherCatV1.13B119,2013-02-09 05:10:00,
2013-02-08 23:15:00,27.8,25.0,30.10,SE,135,1.0,2.0,89,0.00,,,0.00,WeatherCatV1.13B119,2013-02-09 05:15:00,
2013-02-08 23:20:00,27.8,25.0,30.10,SE,135,0.0,3.0,89,0.00,,,0.00,WeatherCatV1.13B119,2013-02-09 05:20:00,
2013-02-08 23:25:00,27.6,25.1,30.10,SSE,150,2.0,2.0,90,0.00,,,0.00,WeatherCatV1.13B119,2013-02-09 05:25:00,
2013-02-08 23:30:00,27.6,25.1,30.11,SSE,152,4.0,4.0,90,0.00,,,0.00,WeatherCatV1.13B119,2013-02-09 05:30:00,
2013-02-08 23:35:00,27.8,25.3,30.11,SSE,152,2.0,4.0,90,0.00,,,0.00,WeatherCatV1.13B119,2013-02-09 05:35:00,
2013-02-08 23:40:00,27.8,25.3,30.11,SSE,152,0.0,2.0,90,0.00,,,0.00,WeatherCatV1.13B119,2013-02-09 05:40:00,
2013-02-08 23:45:00,27.9,25.4,30.11,SE,144,2.0,2.0,90,0.00,,,0.00,WeatherCatV1.13B119,2013-02-09 05:45:00,
2013-02-08 23:50:00,28.1,25.6,30.11,SE,144,0.0,2.0,90,0.00,,,0.00,WeatherCatV1.13B119,2013-02-09 05:50:00,
2013-02-08 23:55:00,28.2,25.9,30.11,SE,144,2.0,3.0,91,0.00,,,0.00,WeatherCatV1.13B119,2013-02-09 05:55:00,